メインページ
METAR-TAF:

METAR-TAF

空港 :

松山, 日本

松山空港

緯度: 33-49N, 経度: 132-42E, 海抜: 4m

現時点の気象観測

当レポートは57分前の23:00(UTC)に作成
南東の風 5kt
気温 6°C
湿度 61%
気圧 1023 hPa
視程10km以上
高度2500ftの雲はほとんどない
高度14000ftの千切れ雲あり

METAR: RJOM 182300Z 13005KT 9999 FEW025 BKN140 06/M01 Q1023

時間: 08:57 (23:57 UTC)

予報

当レポートは52分前の23:05(UTC)に作成
予報は19日の 00時(UTC)から 20日の 06時(UTC)まで有効
東/南東の風 7kt
視程10km以上
高度2500ftの雲はほとんどない
19日の 00時(UTC)から 19日の 02時(UTC)まで徐々に
の風 7kt
19日の 08時(UTC)から 19日の 10時(UTC)まで徐々に
東/南東の風 8kt
20日の 00時(UTC)から 20日の 03時(UTC)まで徐々に
の風 14kt

TAF: RJOM 182305Z 1900/2006 12007KT 9999 FEW025 BECMG 1900/1902 35007KT BECMG 1908/1910 12008KT BECMG 2000/2003 36014KT

4,000以上の空港の気象観測と天気予報(METAR報とTAF報)

利用可能な観測所は地図上に黄色い丸と赤い丸で示す。

丸の上にカーソルを重ねると観測所名を参照できる。

次にクリックすると気象観測と天気予報を参照できる。

マップの切り替え:黒色「×」印の緑ボタンをクリックして拡大、「-」印の緑ボタンをクリックして縮小、緑色の三角印をクリックして隣りの地図に切り替え


METAR-TAF: